Nearby METAR Reports

 

KEQY - Monroe, North Carolina, USA
Distance from station: S 11mi, 18km
Updated: Sun, 02/07/2016 3:53pm EST
Clear
Clear
 Wind from N
Wind: N 12 mph , 19 km/h
Temperature: 48°F , 9°C
Wind Chill: 43°F , 6°C
Dew Point: 21°F , -6°C
Humidity: 34%
Barometer: 29.94 inHg , 1013.9 hPa
Clouds: Clear
Visibility: 10 miles , 16 km
2016/02/07 20:53 KEQY 072053Z AUTO 36010KT 10SM CLR 09/M06 A2994 RMK AO2 SLP155 T00891056 56020
KJQF - Concord Reg Arpt, North Carolina, USA
Distance from station: NNW 16mi, 25km
Updated: Sun, 02/07/2016 3:57pm EST
Clear
Clear
 Wind from N
Wind: N 13 mph , 20 km/h
Temperature: 48°F , 9°C
Wind Chill: 43°F , 6°C
Dew Point: 21°F , -6°C
Humidity: 34%
Barometer: 29.98 inHg , 1015.2 hPa
Clouds: Clear
Visibility: 10 miles , 16 km
2016/02/07 20:57 KJQF 072057Z 01011KT 10SM CLR 09/M06 A2998
 
KCLT - Charlotte, North Carolina, USA
Distance from station: W 20mi, 33km
Updated: Sun, 02/07/2016 3:52pm EST
Mostly cloudy
Mostly cloudy
 Wind from NNE
Wind: NNE 10 mph , 17 km/h
Temperature: 50°F , 10°C
Wind Chill: 46°F , 8°C
Dew Point: 19°F , -7°C
Humidity: 30%
Barometer: 29.95 inHg , 1014.2 hPa
Clouds: Mostly cloudy
Visibility: 10 miles , 16 km
Cloud details: Partly cloudy 20000 ft
Mostly cloudy 25000 ft
2016/02/07 20:52 KCLT 072052Z 02009KT 10SM SCT200 BKN250 10/M07 A2995 RMK AO2 SLP142 T01001067 56030
KUZA - Rock Hill, South Carolina, USA
Distance from station: WSW 29mi, 47km
Updated: Sun, 02/07/2016 3:54pm EST
Clear
Clear
 Wind from NNE
Wind: NNE 12 mph , 19 km/h, Gust: 17 mph , 28 km/h
Temperature: 50°F , 10°C
Wind Chill: 45°F , 7°C
Dew Point: 21°F , -6°C
Humidity: 32%
Barometer: 29.95 inHg , 1014.2 hPa
Clouds: Clear
Visibility: 10 miles , 16 km
2016/02/07 20:54 KUZA 072054Z AUTO 03010G15KT 10SM CLR 10/M06 A2995 RMK AO2 SLP143 T01001056 56027
 
KVUJ - Albemarle Stanly, North Carolina, USA
Distance from station: NE 30mi, 48km
Updated: Sun, 02/07/2016 4:15pm EST
Clear
Clear
 Wind from N
Wind: N 9 mph , 15 km/h, Gust: 16 mph , 26 km/h
Temperature: 46°F , 8°C
Wind Chill: 41°F , 5°C
Dew Point: 23°F , -5°C
Humidity: 40%
Barometer: 29.97 inHg , 1014.9 hPa
Clouds: Clear
Visibility: 10 miles , 16 km
2016/02/07 21:15 KVUJ 072115Z AUTO 35008G14KT 10SM CLR 08/M05 A2997 RMK AO2 T00831052
KAFP - Wadesboro/Anson, North Carolina, USA
Distance from station: ESE 31mi, 50km
Updated: Sun, 02/07/2016 4:15pm EST
Clear
Clear
 Wind from NNW
Wind: NNW 12 mph , 19 km/h, Gust: 22 mph , 35 km/h
Temperature: 48°F , 9°C
Wind Chill: 43°F , 6°C
Dew Point: 19°F , -7°C
Humidity: 32%
Barometer: 29.92 inHg , 1013.2 hPa
Clouds: Clear
Visibility: 10 miles , 16 km
2016/02/07 21:15 KAFP 072115Z AUTO 34010G19KT 10SM CLR 09/M07 A2992 RMK AO2 T00901067
 
KAKH - Gastonia, North Carolina, USA
Distance from station: W 31mi, 51km
Updated: Sun, 02/07/2016 3:54pm EST
Clear
Clear
 Wind from NE
Wind: NE 9 mph , 15 km/h
Temperature: 52°F , 11°C
Dew Point: 21°F , -6°C
Humidity: 30%
Barometer: 29.93 inHg , 1013.5 hPa
Clouds: Clear
Visibility: 10 miles , 16 km
2016/02/07 20:54 KAKH 072054Z AUTO 04008KT 10SM CLR 11/M06 A2993 RMK AO2 SLP138 T01111061 58033 TSNO
KRUQ - Salisbury Rowan, North Carolina, USA
Distance from station: N 33mi, 53km
Updated: Sun, 02/07/2016 4:15pm EST
Clear
Clear
 Wind from N
Wind: N 7 mph , 11 km/h
Temperature: 48°F , 9°C
Wind Chill: 45°F , 7°C
Dew Point: 21°F , -6°C
Humidity: 34%
Barometer: 29.93 inHg , 1013.5 hPa
Clouds: Clear
Visibility: 10 miles , 16 km
2016/02/07 21:15 KRUQ 072115Z AUTO 36006KT 10SM CLR 09/M06 A2993 RMK AO2 T00861056
 
KLKR - Lancaster, South Carolina, USA
Distance from station: SSW 35mi, 57km
Updated: Sun, 02/07/2016 4:15pm EST
Clear
Clear
 Wind from N
Wind: N 8 mph , 13 km/h
Temperature: 50°F , 10°C
Wind Chill: 47°F , 8°C
Dew Point: 21°F , -6°C
Humidity: 32%
Barometer: 29.95 inHg , 1014.2 hPa
Clouds: Clear
Visibility: 10 miles , 16 km
2016/02/07 21:15 KLKR 072115Z AUTO 36007KT 10SM CLR 10/M06 A2995 RMK AO2 PWINO
KIPJ - Lincolnton, North Carolina, USA
Distance from station: WNW 39mi, 62km
Updated: Sun, 02/07/2016 4:15pm EST
Clear
Clear
 Wind from NE
Wind: NE 7 mph , 11 km/h
Temperature: 52°F , 11°C
Dew Point: 21°F , -6°C
Humidity: 30%
Barometer: 29.93 inHg , 1013.5 hPa
Clouds: Clear
Visibility: 10 miles , 16 km
2016/02/07 21:15 KIPJ 072115Z AUTO 05006KT 10SM CLR 11/M06 A2993 RMK AO2 T01101063
 
KDCM - Chester Catawba, South Carolina, USA
Distance from station: SW 44mi, 71km
Updated: Sun, 02/07/2016 2:55pm EST
NOT Current
Clear
Clear
 Wind from N
Wind: N 13 mph , 20 km/h, Gust: 21 mph , 33 km/h
Temperature: 50°F , 10°C
Wind Chill: 45°F , 7°C
Dew Point: 21°F , -6°C
Humidity: 32%
Barometer: 29.97 inHg , 1014.9 hPa
Clouds: Clear
Visibility: 10 miles , 16 km
2016/02/07 19:55 KDCM 071955Z AUTO 36011G18KT 10SM CLR 10/M06 A2997 RMK AO2
KSVH - Statesville, North Carolina, USA
Distance from station: NNW 44mi, 71km
Updated: Sun, 02/07/2016 4:15pm EST
Clear
Clear
 Wind from NE
Wind: NE 13 mph , 20 km/h, Gust: 16 mph , 26 km/h
Temperature: 48°F , 9°C
Wind Chill: 43°F , 6°C
Dew Point: 23°F , -5°C
Humidity: 37%
Barometer: 29.91 inHg , 1012.9 hPa
Clouds: Clear
Visibility: 10 miles , 16 km
2016/02/07 21:15 KSVH 072115Z AUTO 04011G14KT 10SM CLR 09/M05 A2991 RMK AO2 T00931046
 
KEXX - Davidson Cty Ap, North Carolina, USA
Distance from station: NNE 45mi, 72km
Updated: Sun, 02/07/2016 4:15pm EST
Clear
Clear
 Wind from N
Wind: N 5 mph , 7 km/h
Temperature: 46°F , 8°C
Wind Chill: 44°F , 7°C
Dew Point: 21°F , -6°C
Humidity: 37%
Barometer: 29.93 inHg , 1013.5 hPa
Clouds: Clear
Visibility: 10 miles , 16 km
2016/02/07 21:15 KEXX 072115Z AUTO 36004KT 10SM CLR 08/M06 A2993 RMK AO2 T00831056
KCQW - Cheraw, South Carolina, USA
Distance from station: SE 49mi, 78km
Updated: Sun, 02/07/2016 4:15pm EST
Clear
Clear
 Wind from N
Wind: N 12 mph , 19 km/h, Gust: 18 mph , 30 km/h
Temperature: 46°F , 8°C
Wind Chill: 40°F , 4°C
Dew Point: 16°F , -9°C
Humidity: 29%
Barometer: 29.91 inHg , 1012.9 hPa
Clouds: Clear
Visibility: 10 miles , 16 km
2016/02/07 21:15 KCQW 072115Z AUTO 35010G16KT 10SM CLR 08/M09 A2991 RMK AO2